createdAt,value
2018-03-30T00:00:09.081Z,40.43
2018-03-30T00:02:36.675Z,33.37
2018-03-30T00:05:04.337Z,39.07
2018-03-30T00:07:31.931Z,42.80
2018-03-30T00:09:59.534Z,37.13
2018-03-30T00:12:27.171Z,35.40
2018-03-30T00:14:54.758Z,32.50
2018-03-30T00:17:22.340Z,32.60
2018-03-30T00:19:49.995Z,36.77
2018-03-30T00:22:17.654Z,30.87
2018-03-30T00:24:45.299Z,32.37
2018-03-30T00:27:12.897Z,33.93
2018-03-30T00:29:40.490Z,34.17
2018-03-30T00:32:08.080Z,34.27
2018-03-30T00:34:35.666Z,33.33
2018-03-30T00:37:03.295Z,33.47
2018-03-30T00:39:30.883Z,32.77
2018-03-30T00:41:58.468Z,39.83
2018-03-30T00:44:26.060Z,38.73
2018-03-30T00:46:53.731Z,31.40
2018-03-30T00:49:21.330Z,37.37
2018-03-30T00:51:48.931Z,39.57
2018-03-30T00:54:16.552Z,36.20
2018-03-30T00:56:44.135Z,34.80
2018-03-30T00:59:11.728Z,35.43
2018-03-30T01:01:39.408Z,33.80
2018-03-30T01:04:07.024Z,35.87
2018-03-30T01:06:34.739Z,36.33
2018-03-30T01:09:02.327Z,35.17
2018-03-30T01:11:29.915Z,36.43
2018-03-30T01:13:57.514Z,34.27
2018-03-30T01:16:25.097Z,35.13
2018-03-30T01:18:52.698Z,40.73
2018-03-30T01:21:20.296Z,34.30
2018-03-30T01:23:47.914Z,40.40
2018-03-30T01:26:15.591Z,38.70
2018-03-30T01:28:43.232Z,38.63
2018-03-30T01:31:10.899Z,42.13
2018-03-30T01:33:38.479Z,44.67
2018-03-30T01:36:06.111Z,48.83
2018-03-30T01:38:33.696Z,41.30
2018-03-30T01:41:01.301Z,40.67
2018-03-30T01:43:28.939Z,45.10
2018-03-30T01:45:56.551Z,50.57
2018-03-30T01:48:24.126Z,46.57
2018-03-30T01:50:51.720Z,48.23
2018-03-30T01:53:19.352Z,52.93
2018-03-30T01:55:47.028Z,48.93
2018-03-30T01:58:14.668Z,45.03
2018-03-30T02:00:42.267Z,46.23
2018-03-30T02:03:09.854Z,43.03
2018-03-30T02:05:37.490Z,48.60
2018-03-30T02:08:05.114Z,52.00
2018-03-30T02:10:32.714Z,48.60
2018-03-30T02:13:00.306Z,55.83
2018-03-30T02:15:27.934Z,49.30
2018-03-30T02:17:55.520Z,47.43
2018-03-30T02:20:23.106Z,52.17
2018-03-30T02:22:50.726Z,54.33
2018-03-30T02:25:18.344Z,51.40
2018-03-30T02:27:45.954Z,51.87
2018-03-30T02:30:13.585Z,54.70
2018-03-30T02:32:41.233Z,54.70
2018-03-30T02:35:08.857Z,50.37
2018-03-30T02:37:36.459Z,48.80
2018-03-30T02:40:04.096Z,58.00
2018-03-30T02:42:31.726Z,58.33
2018-03-30T02:44:59.330Z,61.27
2018-03-30T02:47:26.923Z,63.73
2018-03-30T02:49:54.555Z,54.43
2018-03-30T02:52:22.192Z,56.20
2018-03-30T02:54:49.832Z,53.73
2018-03-30T02:57:17.464Z,53.67
2018-03-30T02:59:45.099Z,57.63
2018-03-30T03:02:12.713Z,55.37
2018-03-30T03:04:40.303Z,57.37
2018-03-30T03:07:07.886Z,57.80
2018-03-30T03:09:35.511Z,50.00
2018-03-30T03:12:03.131Z,52.27
2018-03-30T03:14:30.731Z,56.17
2018-03-30T03:16:58.331Z,51.17
2018-03-30T03:19:25.923Z,50.90
2018-03-30T03:21:53.510Z,56.33
2018-03-30T03:24:21.115Z,54.63
2018-03-30T03:26:48.725Z,54.53
2018-03-30T03:29:16.319Z,60.80
2018-03-30T03:31:44.006Z,65.50
2018-03-30T03:34:11.607Z,59.30
2018-03-30T03:36:39.201Z,62.13
2018-03-30T03:39:06.787Z,61.37
2018-03-30T03:41:34.380Z,61.53
2018-03-30T03:44:02.054Z,61.00
2018-03-30T03:46:29.699Z,58.17
2018-03-30T03:48:57.323Z,50.87
2018-03-30T03:51:24.962Z,52.57
2018-03-30T03:53:52.548Z,53.40
2018-03-30T03:56:20.135Z,56.70
2018-03-30T03:58:47.726Z,53.17
2018-03-30T04:01:15.360Z,52.77
2018-03-30T04:03:42.963Z,58.63
2018-03-30T04:06:10.552Z,56.90
2018-03-30T04:08:38.175Z,58.90
2018-03-30T04:11:05.803Z,62.30
2018-03-30T04:13:33.395Z,59.20
2018-03-30T04:16:01.079Z,57.47
2018-03-30T04:18:28.666Z,54.03
2018-03-30T04:20:56.263Z,57.50
2018-03-30T04:23:23.858Z,54.77
2018-03-30T04:25:51.547Z,51.17
2018-03-30T04:28:19.166Z,44.03
2018-03-30T04:30:46.754Z,42.90
2018-03-30T04:33:14.465Z,48.77
2018-03-30T04:35:42.065Z,41.37
2018-03-30T04:38:09.666Z,37.87
2018-03-30T04:40:37.302Z,36.20
2018-03-30T04:43:04.921Z,35.53
2018-03-30T04:45:32.602Z,40.23
2018-03-30T04:48:00.187Z,36.97
2018-03-30T04:50:27.800Z,42.27
2018-03-30T04:52:55.402Z,36.00
2018-03-30T04:55:23.023Z,39.83
2018-03-30T04:57:50.624Z,37.17
2018-03-30T05:00:18.222Z,38.70
2018-03-30T05:02:45.850Z,44.90
2018-03-30T05:05:13.436Z,36.57
2018-03-30T05:07:41.067Z,38.03
2018-03-30T05:10:08.675Z,39.43
2018-03-30T05:12:36.303Z,38.80
2018-03-30T05:15:04.075Z,39.83
2018-03-30T05:17:31.679Z,38.27
2018-03-30T05:19:59.372Z,43.13
2018-03-30T05:22:27.003Z,41.07
2018-03-30T05:24:54.622Z,37.43
2018-03-30T05:27:22.253Z,42.67
2018-03-30T05:29:49.870Z,41.40
2018-03-30T05:32:17.499Z,64.17
2018-03-30T05:34:45.262Z,40.50
2018-03-30T05:37:12.988Z,49.43
2018-03-30T05:39:40.709Z,48.00
2018-03-30T05:42:08.339Z,45.97
2018-03-30T05:44:35.969Z,39.00
2018-03-30T05:47:03.585Z,44.80
2018-03-30T05:49:31.186Z,36.50
2018-03-30T05:51:58.831Z,46.33
2018-03-30T05:54:26.469Z,46.07
2018-03-30T05:56:54.063Z,39.77
2018-03-30T05:59:21.695Z,38.27
2018-03-30T06:01:49.287Z,38.13
2018-03-30T06:04:16.918Z,37.90
2018-03-30T06:06:44.679Z,33.17
2018-03-30T06:09:12.374Z,35.47
2018-03-30T06:11:40.000Z,35.13
2018-03-30T06:14:07.640Z,36.00
2018-03-30T06:16:35.230Z,43.33
2018-03-30T06:19:02.846Z,40.73
2018-03-30T06:21:30.546Z,47.13
2018-03-30T06:23:58.188Z,49.67
2018-03-30T06:26:25.796Z,36.30
2018-03-30T06:28:53.403Z,48.33
2018-03-30T06:31:21.048Z,41.17
2018-03-30T06:33:48.642Z,35.40
2018-03-30T06:36:16.238Z,32.93
2018-03-30T06:38:43.855Z,42.83
2018-03-30T06:41:12.039Z,30.40
2018-03-30T06:43:39.640Z,29.87
2018-03-30T06:46:07.240Z,31.93
2018-03-30T06:48:34.853Z,35.97
2018-03-30T06:51:02.468Z,32.23
2018-03-30T06:53:30.122Z,31.93
2018-03-30T06:55:57.722Z,31.90
2018-03-30T06:58:25.335Z,37.47
2018-03-30T07:00:52.970Z,35.50
2018-03-30T07:03:20.603Z,33.70
2018-03-30T07:05:48.198Z,34.93
2018-03-30T07:08:15.812Z,35.50
2018-03-30T07:10:43.458Z,40.70
2018-03-30T07:13:11.128Z,37.90
2018-03-30T07:15:38.767Z,36.53
2018-03-30T07:18:06.377Z,36.07
2018-03-30T07:20:33.992Z,35.50
2018-03-30T07:23:01.627Z,35.17
2018-03-30T07:25:29.283Z,34.57
2018-03-30T07:27:56.890Z,30.50
2018-03-30T07:30:24.484Z,31.90
2018-03-30T07:32:52.199Z,40.03
2018-03-30T07:35:19.821Z,37.57
2018-03-30T07:37:47.415Z,31.20
2018-03-30T07:40:15.022Z,31.07
2018-03-30T07:42:42.655Z,32.47
2018-03-30T07:45:10.257Z,34.07
2018-03-30T07:47:37.941Z,31.97
2018-03-30T07:50:05.567Z,32.53
2018-03-30T07:52:33.196Z,37.90
2018-03-30T07:55:00.791Z,35.70
2018-03-30T07:57:28.396Z,28.83
2018-03-30T07:59:56.031Z,34.87
2018-03-30T08:02:23.619Z,34.17
2018-03-30T08:04:51.223Z,33.67
2018-03-30T08:07:18.859Z,31.93
2018-03-30T08:09:46.502Z,30.83
2018-03-30T08:12:14.216Z,33.97
2018-03-30T08:14:41.839Z,34.50
2018-03-30T08:17:09.437Z,35.13
2018-03-30T08:19:37.040Z,30.87
2018-03-30T08:22:04.734Z,29.00
2018-03-30T08:24:32.339Z,31.93
2018-03-30T08:26:59.931Z,33.97
2018-03-30T08:29:27.563Z,29.23
2018-03-30T08:31:55.158Z,32.93
2018-03-30T08:34:22.772Z,28.63
2018-03-30T08:36:50.382Z,30.73
2018-03-30T08:39:17.971Z,26.63
2018-03-30T08:41:45.583Z,26.73
2018-03-30T08:44:13.179Z,28.80
2018-03-30T08:46:40.852Z,28.27
2018-03-30T08:49:08.452Z,26.43
2018-03-30T08:51:36.067Z,27.23
2018-03-30T08:54:03.671Z,34.93
2018-03-30T08:56:31.330Z,31.13
2018-03-30T08:58:58.930Z,28.03
2018-03-30T09:01:26.548Z,31.27
2018-03-30T09:03:54.171Z,28.90
2018-03-30T09:06:21.775Z,32.93
2018-03-30T09:08:49.419Z,32.00
2018-03-30T09:11:17.009Z,32.70
2018-03-30T09:13:44.623Z,25.97
2018-03-30T09:16:12.223Z,28.67
2018-03-30T09:18:39.828Z,25.23
2018-03-30T09:21:07.436Z,27.37
2018-03-30T09:23:35.031Z,30.40
2018-03-30T09:26:02.738Z,23.53
2018-03-30T09:28:30.435Z,26.23
2018-03-30T09:30:58.055Z,30.93
2018-03-30T09:33:28.328Z,32.17
2018-03-30T09:35:55.924Z,54.23
2018-03-30T09:38:23.529Z,27.87
2018-03-30T09:40:51.139Z,26.53
2018-03-30T09:43:18.776Z,29.87
2018-03-30T09:45:46.375Z,34.60
2018-03-30T09:48:13.964Z,30.33
2018-03-30T09:50:41.570Z,32.80
2018-03-30T09:53:09.170Z,33.30
2018-03-30T09:55:36.852Z,31.23
2018-03-30T09:58:04.456Z,33.70
2018-03-30T10:00:32.047Z,33.00
2018-03-30T10:03:04.569Z,29.23
2018-03-30T10:05:32.177Z,34.13
2018-03-30T10:07:59.775Z,36.13
2018-03-30T10:10:27.402Z,34.43
2018-03-30T10:12:55.011Z,35.03
2018-03-30T10:15:22.610Z,39.37
2018-03-30T10:17:50.240Z,32.67
2018-03-30T10:20:17.850Z,38.90
2018-03-30T10:22:45.451Z,35.13
2018-03-30T10:25:13.097Z,35.40
2018-03-30T10:27:40.745Z,35.87
2018-03-30T10:30:08.339Z,35.50
2018-03-30T10:32:35.947Z,35.00
2018-03-30T10:35:03.536Z,30.87
2018-03-30T10:37:31.135Z,34.30
2018-03-30T10:39:58.758Z,28.10
2018-03-30T10:42:26.355Z,25.67
2018-03-30T10:44:54.018Z,29.07
2018-03-30T10:47:21.671Z,28.13
2018-03-30T10:49:49.259Z,33.90
2018-03-30T10:52:16.898Z,26.33
2018-03-30T10:54:44.540Z,33.47
2018-03-30T10:57:12.142Z,28.07
2018-03-30T10:59:39.752Z,28.90
2018-03-30T11:02:07.350Z,29.53
2018-03-30T11:04:34.973Z,30.00
2018-03-30T11:07:02.604Z,27.10
2018-03-30T11:09:30.195Z,24.00
2018-03-30T11:11:57.838Z,23.83
2018-03-30T11:14:25.543Z,23.27
2018-03-30T11:16:53.143Z,23.80
2018-03-30T11:19:20.779Z,23.53
2018-03-30T11:21:48.370Z,22.07
2018-03-30T11:24:15.967Z,22.73
2018-03-30T11:26:43.583Z,27.20
2018-03-30T11:29:11.213Z,28.70
2018-03-30T11:31:38.828Z,21.90
2018-03-30T11:34:06.411Z,22.73
2018-03-30T11:36:34.083Z,24.53
2018-03-30T11:39:01.674Z,22.60
2018-03-30T11:41:29.306Z,22.93
2018-03-30T11:43:57.038Z,19.97
2018-03-30T11:46:24.728Z,21.90
2018-03-30T11:48:52.332Z,22.60
2018-03-30T11:51:19.927Z,22.80
2018-03-30T11:53:47.555Z,20.50
2018-03-30T11:56:15.171Z,22.13
2018-03-30T11:58:43.667Z,20.83
2018-03-30T12:01:10.557Z,20.60
2018-03-30T12:03:38.199Z,20.83
2018-03-30T12:06:05.790Z,21.33
2018-03-30T12:08:33.392Z,22.03
2018-03-30T12:11:00.991Z,25.10
2018-03-30T12:13:28.580Z,21.37
2018-03-30T12:15:56.182Z,22.63
2018-03-30T12:18:23.796Z,24.80
2018-03-30T12:20:51.391Z,22.00
2018-03-30T12:23:19.026Z,23.37
2018-03-30T12:25:46.687Z,21.80
2018-03-30T12:28:14.275Z,21.50
2018-03-30T12:30:41.889Z,22.40
2018-03-30T12:33:09.516Z,19.73
2018-03-30T12:35:37.170Z,18.17
2018-03-30T12:38:04.794Z,16.47
2018-03-30T12:40:32.415Z,15.57
2018-03-30T12:43:00.004Z,17.23
2018-03-30T12:45:27.598Z,16.70
2018-03-30T12:47:55.283Z,18.77
2018-03-30T12:50:22.896Z,19.13
2018-03-30T12:52:50.489Z,16.83
2018-03-30T12:55:18.987Z,18.00
2018-03-30T12:57:46.587Z,19.30
2018-03-30T13:00:14.179Z,19.70
2018-03-30T13:02:41.831Z,22.10
2018-03-30T13:05:09.470Z,22.13
2018-03-30T13:07:37.064Z,21.47
2018-03-30T13:10:04.690Z,20.23
2018-03-30T13:12:32.278Z,22.90
2018-03-30T13:14:59.863Z,26.20
2018-03-30T13:17:27.478Z,19.47
2018-03-30T13:19:55.062Z,17.90
2018-03-30T13:22:22.654Z,15.87
2018-03-30T13:24:50.267Z,13.73
2018-03-30T13:27:17.894Z,13.87
2018-03-30T13:29:45.499Z,13.23
2018-03-30T13:32:13.111Z,12.83
2018-03-30T13:34:40.807Z,11.30
2018-03-30T13:37:08.434Z,14.17
2018-03-30T13:39:36.027Z,12.27
2018-03-30T13:42:03.639Z,15.53
2018-03-30T13:44:31.232Z,14.77
2018-03-30T13:46:58.859Z,15.23
2018-03-30T13:49:26.476Z,16.47
2018-03-30T13:51:57.956Z,21.80
2018-03-30T13:54:27.246Z,19.67
2018-03-30T13:57:00.436Z,14.80
2018-03-30T13:59:28.875Z,17.80
2018-03-30T14:02:01.109Z,17.17
2018-03-30T14:04:44.502Z,15.37
2018-03-30T14:07:13.872Z,39.33
2018-03-30T14:09:42.223Z,17.07
2018-03-30T14:12:12.471Z,17.17
2018-03-30T14:14:40.070Z,15.37
2018-03-30T14:17:21.323Z,15.53
2018-03-30T14:19:50.461Z,16.30
2018-03-30T14:25:20.423Z,11.40
2018-03-30T14:27:59.585Z,13.77
2018-03-30T14:30:27.174Z,13.73
2018-03-30T14:33:07.403Z,10.63
2018-03-30T14:38:34.726Z,10.80
2018-03-30T14:41:02.347Z,14.13
2018-03-30T14:43:33.582Z,13.63
2018-03-30T14:48:59.375Z,14.27
2018-03-30T14:51:33.750Z,10.83
2018-03-30T14:54:07.026Z,9.83
2018-03-30T14:56:38.483Z,9.40
2018-03-30T14:59:09.885Z,11.73
2018-03-30T15:01:43.357Z,16.37
2018-03-30T15:04:22.774Z,11.33
2018-03-30T15:06:56.247Z,12.03
2018-03-30T15:09:26.374Z,10.50
2018-03-30T15:12:01.649Z,12.83
2018-03-30T15:14:29.960Z,55.90
2018-03-30T15:17:01.343Z,10.57
2018-03-30T15:19:49.615Z,10.70
2018-03-30T15:22:20.953Z,15.23
2018-03-30T15:24:57.071Z,13.97
2018-03-30T15:27:27.342Z,11.50
2018-03-30T15:29:57.816Z,12.80
2018-03-30T15:32:51.762Z,11.27
2018-03-30T15:35:19.479Z,10.73
2018-03-30T15:37:47.104Z,10.37
2018-03-30T15:40:17.411Z,12.50
2018-03-30T15:42:50.753Z,11.83
2018-03-30T15:45:21.886Z,14.90
2018-03-30T15:47:49.556Z,13.73
2018-03-30T15:50:17.228Z,16.33
2018-03-30T15:52:44.927Z,12.90
2018-03-30T15:55:12.550Z,9.80
2018-03-30T15:57:40.227Z,13.20
2018-03-30T16:00:07.864Z,16.80
2018-03-30T16:02:35.492Z,11.77
2018-03-30T16:05:03.243Z,13.67
2018-03-30T16:07:30.878Z,12.77
2018-03-30T16:10:13.105Z,14.33
2018-03-30T16:12:40.767Z,15.30
2018-03-30T16:15:08.404Z,16.33
2018-03-30T16:17:36.221Z,13.83
2018-03-30T16:20:03.304Z,16.43
2018-03-30T16:22:30.429Z,16.27
2018-03-30T16:24:57.523Z,13.47
2018-03-30T16:27:24.578Z,18.73
2018-03-30T16:29:51.631Z,14.60
2018-03-30T16:32:18.754Z,18.53
2018-03-30T16:34:45.813Z,15.33
2018-03-30T16:37:12.915Z,15.70
2018-03-30T16:39:40.249Z,15.57
2018-03-30T16:42:07.311Z,19.63
2018-03-30T16:44:34.382Z,19.20
2018-03-30T16:47:01.476Z,21.83
2018-03-30T16:49:28.526Z,26.93
2018-03-30T16:51:55.635Z,34.23
2018-03-30T16:54:22.679Z,39.03
2018-03-30T16:56:49.739Z,36.07
2018-03-30T16:59:16.815Z,32.63
2018-03-30T17:01:43.885Z,34.03
2018-03-30T17:04:11.026Z,29.30
2018-03-30T17:06:38.080Z,26.47
2018-03-30T17:09:05.190Z,28.23
2018-03-30T17:11:32.246Z,26.03
2018-03-30T17:13:59.298Z,26.60
2018-03-30T17:16:26.383Z,31.33
2018-03-30T17:18:53.442Z,40.53
2018-03-30T17:21:20.504Z,22.03
2018-03-30T17:23:47.564Z,25.90
2018-03-30T17:26:15.542Z,30.80
2018-03-30T17:28:42.627Z,26.27
2018-03-30T17:31:09.674Z,22.87
2018-03-30T17:33:36.799Z,30.07
2018-03-30T17:36:03.943Z,30.77
2018-03-30T17:38:30.991Z,37.37
2018-03-30T17:40:58.048Z,36.93
2018-03-30T17:43:25.151Z,30.97
2018-03-30T17:45:52.224Z,46.97
2018-03-30T17:48:19.283Z,43.47
2018-03-30T17:50:46.412Z,40.97
2018-03-30T17:53:13.491Z,45.07
2018-03-30T17:55:40.547Z,42.77
2018-03-30T17:58:07.643Z,48.63
2018-03-30T18:00:34.734Z,37.67
2018-03-30T18:03:01.790Z,43.40
2018-03-30T18:05:28.842Z,34.93
2018-03-30T18:07:55.894Z,37.03
2018-03-30T18:10:23.008Z,31.47
2018-03-30T18:12:50.186Z,29.37
2018-03-30T18:15:17.290Z,28.30
2018-03-30T18:17:44.496Z,36.00
2018-03-30T18:20:11.627Z,35.87
2018-03-30T18:22:39.703Z,42.20
2018-03-30T18:25:06.802Z,36.60
2018-03-30T18:27:33.892Z,44.57
2018-03-30T18:30:00.986Z,44.00
2018-03-30T18:32:28.039Z,36.07
2018-03-30T18:34:55.103Z,46.83
2018-03-30T18:37:22.276Z,32.77
2018-03-30T18:39:49.359Z,44.07
2018-03-30T18:42:16.435Z,41.87
2018-03-30T18:44:43.552Z,27.80
2018-03-30T18:47:10.707Z,30.97
2018-03-30T18:49:37.819Z,24.40
2018-03-30T18:52:04.925Z,24.60
2018-03-30T18:54:32.046Z,27.50
2018-03-30T18:56:59.191Z,27.03
2018-03-30T18:59:26.243Z,27.40
2018-03-30T19:01:53.299Z,25.33
2018-03-30T19:04:20.399Z,28.43
2018-03-30T19:06:47.528Z,24.47
2018-03-30T19:09:14.662Z,26.30
2018-03-30T19:11:41.753Z,27.00
2018-03-30T19:14:08.822Z,34.90
2018-03-30T19:16:35.939Z,30.50
2018-03-30T19:19:03.018Z,32.20
2018-03-30T19:21:30.074Z,33.87
2018-03-30T19:23:57.168Z,31.37
2018-03-30T19:26:24.294Z,38.87
2018-03-30T19:28:51.346Z,32.90
2018-03-30T19:31:18.443Z,29.07
2018-03-30T19:33:45.491Z,35.83
2018-03-30T19:36:12.547Z,34.13
2018-03-30T19:38:39.661Z,31.83
2018-03-30T19:41:06.798Z,35.37
2018-03-30T19:43:33.838Z,32.87
2018-03-30T19:46:00.959Z,34.77
2018-03-30T19:48:28.015Z,39.07
2018-03-30T19:50:55.061Z,36.93
2018-03-30T19:53:22.146Z,39.90
2018-03-30T19:55:49.203Z,42.03
2018-03-30T19:58:16.363Z,34.57
2018-03-30T20:00:43.452Z,34.13
2018-03-30T20:03:10.500Z,34.40
2018-03-30T20:05:37.584Z,33.53
2018-03-30T20:08:04.672Z,31.23
2018-03-30T20:10:31.726Z,29.50
2018-03-30T20:12:58.783Z,31.23
2018-03-30T20:15:25.946Z,31.60
2018-03-30T20:17:53.022Z,33.80
2018-03-30T20:20:20.109Z,33.73
2018-03-30T20:22:47.167Z,34.33
2018-03-30T20:25:14.238Z,33.27
2018-03-30T20:27:41.323Z,32.60
2018-03-30T20:30:08.418Z,29.10
2018-03-30T20:32:35.469Z,32.67
2018-03-30T20:35:02.532Z,28.03
2018-03-30T20:37:29.619Z,28.43
2018-03-30T20:39:56.674Z,28.87
2018-03-30T20:42:23.731Z,28.23
2018-03-30T20:44:50.850Z,28.60
2018-03-30T20:47:17.960Z,29.17
2018-03-30T20:49:45.027Z,28.30
2018-03-30T20:52:12.074Z,27.53
2018-03-30T20:54:39.133Z,27.50
2018-03-30T20:57:06.186Z,27.07
2018-03-30T20:59:33.276Z,29.93
2018-03-30T21:02:00.324Z,27.37
2018-03-30T21:04:27.386Z,25.67
2018-03-30T21:06:54.471Z,25.47
2018-03-30T21:09:21.542Z,25.17
2018-03-30T21:11:48.630Z,23.53
2018-03-30T21:14:15.680Z,26.30
2018-03-30T21:16:42.754Z,25.30
2018-03-30T21:19:09.843Z,27.93
2018-03-30T21:21:36.898Z,25.23
2018-03-30T21:24:03.946Z,25.07
2018-03-30T21:26:31.009Z,28.17
2018-03-30T21:28:58.101Z,25.53
2018-03-30T21:31:25.227Z,27.30
2018-03-30T21:33:52.300Z,27.97
2018-03-30T21:36:19.350Z,27.70
2018-03-30T21:38:46.411Z,26.67
2018-03-30T21:41:13.479Z,26.67
2018-03-30T21:43:40.571Z,25.90
2018-03-30T21:46:07.646Z,24.00
2018-03-30T21:48:34.714Z,25.23
2018-03-30T21:51:01.887Z,24.97
2018-03-30T21:53:28.944Z,27.00
2018-03-30T21:55:56.060Z,25.97
2018-03-30T21:58:23.142Z,25.37
2018-03-30T22:00:50.222Z,24.40
2018-03-30T22:03:17.268Z,22.47
2018-03-30T22:05:44.402Z,27.23
2018-03-30T22:08:11.442Z,28.70
2018-03-30T22:10:38.495Z,24.90
2018-03-30T22:13:05.607Z,27.40
2018-03-30T22:15:32.655Z,25.27
2018-03-30T22:17:59.701Z,28.43
2018-03-30T22:20:26.785Z,24.07
2018-03-30T22:22:53.831Z,27.37
2018-03-30T22:25:20.893Z,24.67
2018-03-30T22:27:47.959Z,23.77
2018-03-30T22:30:15.015Z,29.30
2018-03-30T22:32:42.106Z,28.00
2018-03-30T22:35:09.198Z,26.57
2018-03-30T22:37:36.242Z,24.50
2018-03-30T22:40:03.378Z,26.73
2018-03-30T22:42:30.438Z,27.07
2018-03-30T22:44:57.523Z,26.60
2018-03-30T22:47:24.622Z,28.17
2018-03-30T22:49:51.670Z,22.63
2018-03-30T22:52:18.722Z,23.53
2018-03-30T22:54:45.770Z,24.53
2018-03-30T22:57:12.830Z,27.63
2018-03-30T22:59:39.919Z,25.97
2018-03-30T23:02:06.970Z,23.77
2018-03-30T23:04:34.022Z,25.37
2018-03-30T23:07:01.107Z,25.80
2018-03-30T23:09:28.177Z,24.53
2018-03-30T23:11:55.234Z,27.97
2018-03-30T23:14:22.314Z,24.60
2018-03-30T23:16:49.358Z,24.30
2018-03-30T23:19:16.420Z,26.90
2018-03-30T23:21:43.474Z,27.23
2018-03-30T23:24:10.554Z,25.43
2018-03-30T23:26:37.602Z,27.33
2018-03-30T23:29:04.659Z,25.73
2018-03-30T23:31:31.818Z,27.73
2018-03-30T23:33:58.958Z,27.47
2018-03-30T23:36:26.039Z,25.83
2018-03-30T23:38:53.128Z,27.13
2018-03-30T23:41:20.182Z,29.17
2018-03-30T23:43:47.283Z,27.30
2018-03-30T23:46:14.346Z,26.97
2018-03-30T23:48:41.394Z,27.37
2018-03-30T23:51:08.526Z,27.70
2018-03-30T23:53:35.584Z,28.77
2018-03-30T23:56:02.662Z,25.47
2018-03-30T23:58:29.722Z,29.33
